sensor_id;sensor_type;location;lat;lon;timestamp;temperature;humidity
17565;DHT22;62994;52.126;5.596;2023-02-15T00:02:00;5.40;99.90
17565;DHT22;62994;52.126;5.596;2023-02-15T00:04:36;5.40;99.90
17565;DHT22;62994;52.126;5.596;2023-02-15T00:07:17;5.40;99.90
17565;DHT22;62994;52.126;5.596;2023-02-15T00:09:49;5.40;99.90
17565;DHT22;62994;52.126;5.596;2023-02-15T00:12:16;5.30;99.90
17565;DHT22;62994;52.126;5.596;2023-02-15T00:14:43;5.30;99.90
17565;DHT22;62994;52.126;5.596;2023-02-15T00:17:10;5.30;99.90
17565;DHT22;62994;52.126;5.596;2023-02-15T00:19:39;5.30;99.90
17565;DHT22;62994;52.126;5.596;2023-02-15T00:22:11;5.30;99.90
17565;DHT22;62994;52.126;5.596;2023-02-15T00:24:37;5.30;99.90
17565;DHT22;62994;52.126;5.596;2023-02-15T00:27:04;5.30;99.90
17565;DHT22;62994;52.126;5.596;2023-02-15T00:29:36;5.20;99.90
17565;DHT22;62994;52.126;5.596;2023-02-15T00:32:03;5.20;99.90
17565;DHT22;62994;52.126;5.596;2023-02-15T00:34:33;5.20;99.90
17565;DHT22;62994;52.126;5.596;2023-02-15T00:37:01;5.10;99.90
17565;DHT22;62994;52.126;5.596;2023-02-15T00:39:29;5.10;99.90
17565;DHT22;62994;52.126;5.596;2023-02-15T00:42:02;5.10;99.90
17565;DHT22;62994;52.126;5.596;2023-02-15T00:44:29;5.00;99.90
17565;DHT22;62994;52.126;5.596;2023-02-15T00:46:56;5.00;99.90
17565;DHT22;62994;52.126;5.596;2023-02-15T00:49:23;4.90;99.90
17565;DHT22;62994;52.126;5.596;2023-02-15T00:52:07;4.90;99.90
17565;DHT22;62994;52.126;5.596;2023-02-15T00:54:34;4.90;99.90
17565;DHT22;62994;52.126;5.596;2023-02-15T00:57:01;4.80;99.90
17565;DHT22;62994;52.126;5.596;2023-02-15T00:59:29;4.80;99.90
17565;DHT22;62994;52.126;5.596;2023-02-15T01:02:00;4.70;99.90
17565;DHT22;62994;52.126;5.596;2023-02-15T01:04:38;4.70;99.90
17565;DHT22;62994;52.126;5.596;2023-02-15T01:07:09;4.70;99.90
17565;DHT22;62994;52.126;5.596;2023-02-15T01:09:36;4.60;99.90
17565;DHT22;62994;52.126;5.596;2023-02-15T01:12:04;4.60;99.90
17565;DHT22;62994;52.126;5.596;2023-02-15T01:14:36;4.60;99.90
17565;DHT22;62994;52.126;5.596;2023-02-15T01:17:06;4.60;99.90
17565;DHT22;62994;52.126;5.596;2023-02-15T01:19:33;4.60;99.90
17565;DHT22;62994;52.126;5.596;2023-02-15T01:22:00;4.60;99.90
17565;DHT22;62994;52.126;5.596;2023-02-15T01:24:28;4.60;99.90
17565;DHT22;62994;52.126;5.596;2023-02-15T01:27:00;4.60;99.90
17565;DHT22;62994;52.126;5.596;2023-02-15T01:29:29;4.60;99.90
17565;DHT22;62994;52.126;5.596;2023-02-15T01:31:58;4.60;99.90
17565;DHT22;62994;52.126;5.596;2023-02-15T01:34:26;4.60;99.90
17565;DHT22;62994;52.126;5.596;2023-02-15T01:36:58;4.60;99.90
17565;DHT22;62994;52.126;5.596;2023-02-15T01:39:30;4.60;99.90
17565;DHT22;62994;52.126;5.596;2023-02-15T01:41:58;4.60;99.90
17565;DHT22;62994;52.126;5.596;2023-02-15T01:44:48;4.50;99.90
17565;DHT22;62994;52.126;5.596;2023-02-15T01:47:23;4.60;99.90
17565;DHT22;62994;52.126;5.596;2023-02-15T01:49:59;4.50;99.90
17565;DHT22;62994;52.126;5.596;2023-02-15T01:52:28;4.50;99.90
17565;DHT22;62994;52.126;5.596;2023-02-15T01:55:00;4.60;99.90
17565;DHT22;62994;52.126;5.596;2023-02-15T01:57:31;4.70;99.90
17565;DHT22;62994;52.126;5.596;2023-02-15T02:00:06;4.70;99.90
17565;DHT22;62994;52.126;5.596;2023-02-15T02:02:35;4.70;99.90
17565;DHT22;62994;52.126;5.596;2023-02-15T02:05:07;4.60;99.90
17565;DHT22;62994;52.126;5.596;2023-02-15T02:07:39;4.60;99.90
17565;DHT22;62994;52.126;5.596;2023-02-15T02:10:10;4.50;99.90
17565;DHT22;62994;52.126;5.596;2023-02-15T02:12:41;4.50;99.90
17565;DHT22;62994;52.126;5.596;2023-02-15T02:15:10;4.50;99.90
17565;DHT22;62994;52.126;5.596;2023-02-15T02:17:46;4.40;99.90
17565;DHT22;62994;52.126;5.596;2023-02-15T02:20:38;4.40;99.90
17565;DHT22;62994;52.126;5.596;2023-02-15T02:23:43;4.40;99.90
17565;DHT22;62994;52.126;5.596;2023-02-15T02:30:19;4.30;99.90
17565;DHT22;62994;52.126;5.596;2023-02-15T02:36:06;4.10;99.90
17565;DHT22;62994;52.126;5.596;2023-02-15T02:38:48;4.10;99.90
17565;DHT22;62994;52.126;5.596;2023-02-15T02:41:26;4.10;99.90
17565;DHT22;62994;52.126;5.596;2023-02-15T02:44:12;4.10;99.90
17565;DHT22;62994;52.126;5.596;2023-02-15T02:46:48;4.10;99.90
17565;DHT22;62994;52.126;5.596;2023-02-15T02:49:31;4.00;99.90
17565;DHT22;62994;52.126;5.596;2023-02-15T02:51:59;3.90;99.90
17565;DHT22;62994;52.126;5.596;2023-02-15T02:54:31;4.00;99.90
17565;DHT22;62994;52.126;5.596;2023-02-15T02:57:01;3.90;99.90
17565;DHT22;62994;52.126;5.596;2023-02-15T02:59:32;3.90;99.90
17565;DHT22;62994;52.126;5.596;2023-02-15T03:02:04;3.90;99.90
17565;DHT22;62994;52.126;5.596;2023-02-15T03:04:37;3.90;99.90
17565;DHT22;62994;52.126;5.596;2023-02-15T03:07:07;3.90;99.90
17565;DHT22;62994;52.126;5.596;2023-02-15T03:09:37;3.80;99.90
17565;DHT22;62994;52.126;5.596;2023-02-15T03:12:09;3.90;99.90
17565;DHT22;62994;52.126;5.596;2023-02-15T03:14:55;3.80;99.90
17565;DHT22;62994;52.126;5.596;2023-02-15T03:17:27;3.90;99.90
17565;DHT22;62994;52.126;5.596;2023-02-15T03:20:02;3.80;99.90
17565;DHT22;62994;52.126;5.596;2023-02-15T03:22:33;3.80;99.90
17565;DHT22;62994;52.126;5.596;2023-02-15T03:25:06;3.80;99.90
17565;DHT22;62994;52.126;5.596;2023-02-15T03:27:39;3.80;99.90
17565;DHT22;62994;52.126;5.596;2023-02-15T03:30:13;3.80;99.90
17565;DHT22;62994;52.126;5.596;2023-02-15T03:32:43;3.80;99.90
17565;DHT22;62994;52.126;5.596;2023-02-15T03:35:12;3.80;99.90
17565;DHT22;62994;52.126;5.596;2023-02-15T03:37:43;3.80;99.90
17565;DHT22;62994;52.126;5.596;2023-02-15T03:40:16;3.80;99.90
17565;DHT22;62994;52.126;5.596;2023-02-15T03:43:14;3.80;99.90
17565;DHT22;62994;52.126;5.596;2023-02-15T03:45:47;3.80;99.90
17565;DHT22;62994;52.126;5.596;2023-02-15T03:48:24;3.80;99.90
17565;DHT22;62994;52.126;5.596;2023-02-15T03:51:10;3.80;99.90
17565;DHT22;62994;52.126;5.596;2023-02-15T03:53:58;3.80;99.90
17565;DHT22;62994;52.126;5.596;2023-02-15T03:56:36;3.80;99.90
17565;DHT22;62994;52.126;5.596;2023-02-15T03:59:04;3.80;99.90
17565;DHT22;62994;52.126;5.596;2023-02-15T04:01:57;3.80;99.90
17565;DHT22;62994;52.126;5.596;2023-02-15T04:04:34;3.70;99.90
17565;DHT22;62994;52.126;5.596;2023-02-15T04:07:04;3.70;99.90
17565;DHT22;62994;52.126;5.596;2023-02-15T04:09:31;3.70;99.90
17565;DHT22;62994;52.126;5.596;2023-02-15T04:12:20;3.70;99.90
17565;DHT22;62994;52.126;5.596;2023-02-15T04:14:51;3.60;99.90
17565;DHT22;62994;52.126;5.596;2023-02-15T04:17:36;3.60;99.90
17565;DHT22;62994;52.126;5.596;2023-02-15T04:20:03;3.60;99.90
17565;DHT22;62994;52.126;5.596;2023-02-15T04:22:49;3.60;99.90
17565;DHT22;62994;52.126;5.596;2023-02-15T04:25:39;3.60;99.90
17565;DHT22;62994;52.126;5.596;2023-02-15T04:28:07;3.60;99.90
17565;DHT22;62994;52.126;5.596;2023-02-15T04:30:34;3.50;99.90
17565;DHT22;62994;52.126;5.596;2023-02-15T04:33:03;3.50;99.90
17565;DHT22;62994;52.126;5.596;2023-02-15T04:35:33;3.50;99.90
17565;DHT22;62994;52.126;5.596;2023-02-15T04:38:02;3.50;99.90
17565;DHT22;62994;52.126;5.596;2023-02-15T04:40:40;3.50;99.90
17565;DHT22;62994;52.126;5.596;2023-02-15T04:43:07;3.50;99.90
17565;DHT22;62994;52.126;5.596;2023-02-15T04:45:34;3.50;99.90
17565;DHT22;62994;52.126;5.596;2023-02-15T04:48:01;3.50;99.90
17565;DHT22;62994;52.126;5.596;2023-02-15T04:50:28;3.40;99.90
17565;DHT22;62994;52.126;5.596;2023-02-15T04:52:54;3.40;99.90
17565;DHT22;62994;52.126;5.596;2023-02-15T04:55:23;3.40;99.90
17565;DHT22;62994;52.126;5.596;2023-02-15T04:57:50;3.40;99.90
17565;DHT22;62994;52.126;5.596;2023-02-15T05:00:23;3.40;99.90
17565;DHT22;62994;52.126;5.596;2023-02-15T05:02:50;3.40;99.90
17565;DHT22;62994;52.126;5.596;2023-02-15T05:05:23;3.30;99.90
17565;DHT22;62994;52.126;5.596;2023-02-15T05:07:50;3.30;99.90
17565;DHT22;62994;52.126;5.596;2023-02-15T05:10:28;3.30;99.90
17565;DHT22;62994;52.126;5.596;2023-02-15T05:12:59;3.30;99.90
17565;DHT22;62994;52.126;5.596;2023-02-15T05:15:29;3.30;99.90
17565;DHT22;62994;52.126;5.596;2023-02-15T05:18:01;3.30;99.90
17565;DHT22;62994;52.126;5.596;2023-02-15T05:20:37;3.30;99.90
17565;DHT22;62994;52.126;5.596;2023-02-15T05:23:05;3.20;99.90
17565;DHT22;62994;52.126;5.596;2023-02-15T05:25:39;3.20;99.90
17565;DHT22;62994;52.126;5.596;2023-02-15T05:28:28;3.20;99.90
17565;DHT22;62994;52.126;5.596;2023-02-15T05:31:03;3.20;99.90
17565;DHT22;62994;52.126;5.596;2023-02-15T05:33:30;3.10;99.90
17565;DHT22;62994;52.126;5.596;2023-02-15T05:36:07;3.10;99.90
17565;DHT22;62994;52.126;5.596;2023-02-15T05:38:37;3.10;99.90
17565;DHT22;62994;52.126;5.596;2023-02-15T05:41:06;3.10;99.90
17565;DHT22;62994;52.126;5.596;2023-02-15T05:43:34;3.10;99.90
17565;DHT22;62994;52.126;5.596;2023-02-15T05:46:01;3.00;99.90
17565;DHT22;62994;52.126;5.596;2023-02-15T05:48:29;3.10;99.90
17565;DHT22;62994;52.126;5.596;2023-02-15T05:51:03;3.00;99.90
17565;DHT22;62994;52.126;5.596;2023-02-15T05:53:35;3.00;99.90
17565;DHT22;62994;52.126;5.596;2023-02-15T05:56:05;3.00;99.90
17565;DHT22;62994;52.126;5.596;2023-02-15T05:58:37;3.00;99.90
17565;DHT22;62994;52.126;5.596;2023-02-15T06:01:08;3.00;99.90
17565;DHT22;62994;52.126;5.596;2023-02-15T06:03:43;3.00;99.90
17565;DHT22;62994;52.126;5.596;2023-02-15T06:06:11;3.00;99.90
17565;DHT22;62994;52.126;5.596;2023-02-15T06:08:42;3.00;99.90
17565;DHT22;62994;52.126;5.596;2023-02-15T06:11:10;2.90;99.90
17565;DHT22;62994;52.126;5.596;2023-02-15T06:13:43;2.90;99.90
17565;DHT22;62994;52.126;5.596;2023-02-15T06:16:10;2.90;99.90
17565;DHT22;62994;52.126;5.596;2023-02-15T06:18:45;2.90;99.90
17565;DHT22;62994;52.126;5.596;2023-02-15T06:21:21;2.90;99.90
17565;DHT22;62994;52.126;5.596;2023-02-15T06:24:02;2.90;99.90
17565;DHT22;62994;52.126;5.596;2023-02-15T06:26:30;2.80;99.90
17565;DHT22;62994;52.126;5.596;2023-02-15T06:29:06;2.80;99.90
17565;DHT22;62994;52.126;5.596;2023-02-15T06:31:39;2.80;99.90
17565;DHT22;62994;52.126;5.596;2023-02-15T06:34:06;2.80;99.90
17565;DHT22;62994;52.126;5.596;2023-02-15T06:36:35;2.80;99.90
17565;DHT22;62994;52.126;5.596;2023-02-15T06:39:02;2.70;99.90
17565;DHT22;62994;52.126;5.596;2023-02-15T06:41:31;2.70;99.90
17565;DHT22;62994;52.126;5.596;2023-02-15T06:44:00;2.70;99.90
17565;DHT22;62994;52.126;5.596;2023-02-15T06:46:33;2.70;99.90
17565;DHT22;62994;52.126;5.596;2023-02-15T06:49:00;2.70;99.90
17565;DHT22;62994;52.126;5.596;2023-02-15T06:51:37;2.70;99.90
17565;DHT22;62994;52.126;5.596;2023-02-15T06:54:05;2.70;99.90
17565;DHT22;62994;52.126;5.596;2023-02-15T06:56:36;2.70;99.90
17565;DHT22;62994;52.126;5.596;2023-02-15T06:59:04;2.70;99.90
17565;DHT22;62994;52.126;5.596;2023-02-15T07:01:33;2.70;99.90
17565;DHT22;62994;52.126;5.596;2023-02-15T07:04:02;2.70;99.90
17565;DHT22;62994;52.126;5.596;2023-02-15T07:06:31;2.70;99.90
17565;DHT22;62994;52.126;5.596;2023-02-15T07:08:59;2.70;99.90
17565;DHT22;62994;52.126;5.596;2023-02-15T07:11:33;2.70;99.90
17565;DHT22;62994;52.126;5.596;2023-02-15T07:14:17;2.70;99.90
17565;DHT22;62994;52.126;5.596;2023-02-15T07:16:44;2.80;99.90
17565;DHT22;62994;52.126;5.596;2023-02-15T07:19:11;2.80;99.90
17565;DHT22;62994;52.126;5.596;2023-02-15T07:21:39;2.80;99.90
17565;DHT22;62994;52.126;5.596;2023-02-15T07:24:11;2.80;99.90
17565;DHT22;62994;52.126;5.596;2023-02-15T07:26:39;2.80;99.90
17565;DHT22;62994;52.126;5.596;2023-02-15T07:29:11;2.80;99.90
17565;DHT22;62994;52.126;5.596;2023-02-15T07:31:44;2.80;99.90
17565;DHT22;62994;52.126;5.596;2023-02-15T07:34:11;2.80;99.90
17565;DHT22;62994;52.126;5.596;2023-02-15T07:36:43;2.90;99.90
17565;DHT22;62994;52.126;5.596;2023-02-15T07:39:13;2.90;99.90
17565;DHT22;62994;52.126;5.596;2023-02-15T07:41:44;2.90;99.90
17565;DHT22;62994;52.126;5.596;2023-02-15T07:44:11;2.90;99.90
17565;DHT22;62994;52.126;5.596;2023-02-15T07:46:39;2.90;99.90
17565;DHT22;62994;52.126;5.596;2023-02-15T07:49:07;2.90;99.90
17565;DHT22;62994;52.126;5.596;2023-02-15T07:51:35;3.00;99.90
17565;DHT22;62994;52.126;5.596;2023-02-15T07:54:02;3.00;99.90
17565;DHT22;62994;52.126;5.596;2023-02-15T07:56:29;3.00;99.90
17565;DHT22;62994;52.126;5.596;2023-02-15T07:58:59;3.00;99.90
17565;DHT22;62994;52.126;5.596;2023-02-15T08:01:37;3.00;99.90
17565;DHT22;62994;52.126;5.596;2023-02-15T08:04:05;3.00;99.90
17565;DHT22;62994;52.126;5.596;2023-02-15T08:06:35;3.10;99.90
17565;DHT22;62994;52.126;5.596;2023-02-15T08:09:03;3.10;99.90
17565;DHT22;62994;52.126;5.596;2023-02-15T08:11:31;3.10;99.90
17565;DHT22;62994;52.126;5.596;2023-02-15T08:14:11;3.10;99.90
17565;DHT22;62994;52.126;5.596;2023-02-15T08:16:42;3.20;99.90
17565;DHT22;62994;52.126;5.596;2023-02-15T08:19:12;3.20;99.90
17565;DHT22;62994;52.126;5.596;2023-02-15T08:21:40;3.30;99.90
17565;DHT22;62994;52.126;5.596;2023-02-15T08:24:09;3.30;99.90
17565;DHT22;62994;52.126;5.596;2023-02-15T08:26:41;3.30;99.90
17565;DHT22;62994;52.126;5.596;2023-02-15T08:29:14;3.30;99.90
17565;DHT22;62994;52.126;5.596;2023-02-15T08:31:41;3.30;99.90
17565;DHT22;62994;52.126;5.596;2023-02-15T08:34:09;3.40;99.90
17565;DHT22;62994;52.126;5.596;2023-02-15T08:36:43;3.40;99.90
17565;DHT22;62994;52.126;5.596;2023-02-15T08:39:12;3.50;99.90
17565;DHT22;62994;52.126;5.596;2023-02-15T08:41:42;3.50;99.90
17565;DHT22;62994;52.126;5.596;2023-02-15T08:44:15;3.60;99.90
17565;DHT22;62994;52.126;5.596;2023-02-15T08:46:45;3.60;99.90
17565;DHT22;62994;52.126;5.596;2023-02-15T08:49:15;3.70;99.90
17565;DHT22;62994;52.126;5.596;2023-02-15T08:51:42;3.70;99.90
17565;DHT22;62994;52.126;5.596;2023-02-15T08:54:12;3.80;99.90
17565;DHT22;62994;52.126;5.596;2023-02-15T08:56:43;3.90;99.90
17565;DHT22;62994;52.126;5.596;2023-02-15T08:59:14;3.90;99.90
17565;DHT22;62994;52.126;5.596;2023-02-15T09:01:43;4.00;99.90
17565;DHT22;62994;52.126;5.596;2023-02-15T09:04:15;4.00;99.90
17565;DHT22;62994;52.126;5.596;2023-02-15T09:06:47;4.10;99.90
17565;DHT22;62994;52.126;5.596;2023-02-15T09:09:14;4.20;99.90
17565;DHT22;62994;52.126;5.596;2023-02-15T09:11:43;4.20;99.90
17565;DHT22;62994;52.126;5.596;2023-02-15T09:14:13;4.30;99.90
17565;DHT22;62994;52.126;5.596;2023-02-15T09:16:41;4.40;99.90
17565;DHT22;62994;52.126;5.596;2023-02-15T09:19:10;4.40;99.90
17565;DHT22;62994;52.126;5.596;2023-02-15T09:21:38;4.50;99.90
17565;DHT22;62994;52.126;5.596;2023-02-15T09:24:07;4.50;99.90
17565;DHT22;62994;52.126;5.596;2023-02-15T09:26:37;4.60;99.90
17565;DHT22;62994;52.126;5.596;2023-02-15T09:29:06;4.70;99.90
17565;DHT22;62994;52.126;5.596;2023-02-15T09:31:40;4.80;99.90
17565;DHT22;62994;52.126;5.596;2023-02-15T09:34:15;4.80;99.90
17565;DHT22;62994;52.126;5.596;2023-02-15T09:36:48;4.90;99.90
17565;DHT22;62994;52.126;5.596;2023-02-15T09:39:17;5.00;99.90
17565;DHT22;62994;52.126;5.596;2023-02-15T09:45:02;5.10;99.90
17565;DHT22;62994;52.126;5.596;2023-02-15T09:48:03;5.20;99.90
17565;DHT22;62994;52.126;5.596;2023-02-15T09:50:48;5.30;99.90
17565;DHT22;62994;52.126;5.596;2023-02-15T09:56:21;5.40;99.90
17565;DHT22;62994;52.126;5.596;2023-02-15T09:58:57;5.50;99.90
17565;DHT22;62994;52.126;5.596;2023-02-15T10:01:35;5.60;99.90
17565;DHT22;62994;52.126;5.596;2023-02-15T10:04:18;5.70;99.90
17565;DHT22;62994;52.126;5.596;2023-02-15T10:06:55;5.80;99.90
17565;DHT22;62994;52.126;5.596;2023-02-15T10:09:39;5.80;99.90
17565;DHT22;62994;52.126;5.596;2023-02-15T10:12:28;5.90;99.90
17565;DHT22;62994;52.126;5.596;2023-02-15T10:15:16;6.00;99.90
17565;DHT22;62994;52.126;5.596;2023-02-15T10:17:56;6.10;99.90
17565;DHT22;62994;52.126;5.596;2023-02-15T10:20:41;6.10;99.90
17565;DHT22;62994;52.126;5.596;2023-02-15T10:23:28;6.20;99.90
17565;DHT22;62994;52.126;5.596;2023-02-15T10:26:04;6.30;99.90
17565;DHT22;62994;52.126;5.596;2023-02-15T10:28:44;6.40;99.90
17565;DHT22;62994;52.126;5.596;2023-02-15T10:31:22;6.40;99.90
17565;DHT22;62994;52.126;5.596;2023-02-15T10:34:11;6.50;99.90
17565;DHT22;62994;52.126;5.596;2023-02-15T10:36:55;6.60;99.90
17565;DHT22;62994;52.126;5.596;2023-02-15T10:39:34;6.70;99.90
17565;DHT22;62994;52.126;5.596;2023-02-15T10:42:11;6.70;99.90
17565;DHT22;62994;52.126;5.596;2023-02-15T10:44:52;6.90;99.90
17565;DHT22;62994;52.126;5.596;2023-02-15T10:47:41;6.90;99.90
17565;DHT22;62994;52.126;5.596;2023-02-15T10:50:20;7.00;99.90
17565;DHT22;62994;52.126;5.596;2023-02-15T10:53:04;7.10;99.90
17565;DHT22;62994;52.126;5.596;2023-02-15T10:55:49;7.20;99.90
17565;DHT22;62994;52.126;5.596;2023-02-15T10:58:29;7.30;99.90
17565;DHT22;62994;52.126;5.596;2023-02-15T11:01:06;7.40;99.90
17565;DHT22;62994;52.126;5.596;2023-02-15T11:03:46;7.50;99.90
17565;DHT22;62994;52.126;5.596;2023-02-15T11:06:21;7.50;99.90
17565;DHT22;62994;52.126;5.596;2023-02-15T11:09:01;7.70;99.90
17565;DHT22;62994;52.126;5.596;2023-02-15T11:11:36;7.80;99.90
17565;DHT22;62994;52.126;5.596;2023-02-15T11:14:10;7.90;99.90
17565;DHT22;62994;52.126;5.596;2023-02-15T11:16:46;8.00;99.90
17565;DHT22;62994;52.126;5.596;2023-02-15T11:19:19;8.10;99.90
17565;DHT22;62994;52.126;5.596;2023-02-15T11:21:55;8.20;99.90
17565;DHT22;62994;52.126;5.596;2023-02-15T11:24:35;8.30;99.90
17565;DHT22;62994;52.126;5.596;2023-02-15T11:27:12;8.50;99.90
17565;DHT22;62994;52.126;5.596;2023-02-15T11:29:52;8.50;99.90
17565;DHT22;62994;52.126;5.596;2023-02-15T11:32:22;8.70;99.90
17565;DHT22;62994;52.126;5.596;2023-02-15T11:34:54;8.80;99.90
17565;DHT22;62994;52.126;5.596;2023-02-15T11:37:35;8.90;99.90
17565;DHT22;62994;52.126;5.596;2023-02-15T11:40:30;9.00;99.90
17565;DHT22;62994;52.126;5.596;2023-02-15T11:43:07;9.20;99.90
17565;DHT22;62994;52.126;5.596;2023-02-15T11:45:39;9.30;99.90
17565;DHT22;62994;52.126;5.596;2023-02-15T11:48:10;9.40;99.90
17565;DHT22;62994;52.126;5.596;2023-02-15T11:50:42;9.50;99.90
17565;DHT22;62994;52.126;5.596;2023-02-15T11:53:12;9.60;99.90
17565;DHT22;62994;52.126;5.596;2023-02-15T11:55:42;9.70;99.90
17565;DHT22;62994;52.126;5.596;2023-02-15T11:58:25;9.80;99.90
17565;DHT22;62994;52.126;5.596;2023-02-15T12:01:04;9.90;99.90
17565;DHT22;62994;52.126;5.596;2023-02-15T12:03:43;10.00;99.90
17565;DHT22;62994;52.126;5.596;2023-02-15T12:06:23;10.00;99.90
17565;DHT22;62994;52.126;5.596;2023-02-15T12:08:57;10.10;99.90
17565;DHT22;62994;52.126;5.596;2023-02-15T12:11:34;10.30;99.90
17565;DHT22;62994;52.126;5.596;2023-02-15T12:14:03;10.30;99.90
17565;DHT22;62994;52.126;5.596;2023-02-15T12:16:40;10.40;99.90
17565;DHT22;62994;52.126;5.596;2023-02-15T12:19:13;10.40;99.90
17565;DHT22;62994;52.126;5.596;2023-02-15T12:21:49;10.50;99.90
17565;DHT22;62994;52.126;5.596;2023-02-15T12:24:22;10.60;99.90
17565;DHT22;62994;52.126;5.596;2023-02-15T12:27:02;10.70;99.90
17565;DHT22;62994;52.126;5.596;2023-02-15T12:29:39;10.80;99.90
17565;DHT22;62994;52.126;5.596;2023-02-15T12:32:11;10.90;99.90
17565;DHT22;62994;52.126;5.596;2023-02-15T12:34:44;11.00;99.90
17565;DHT22;62994;52.126;5.596;2023-02-15T12:37:17;11.00;99.90
17565;DHT22;62994;52.126;5.596;2023-02-15T12:39:54;11.10;99.90
17565;DHT22;62994;52.126;5.596;2023-02-15T12:42:23;11.20;99.90
17565;DHT22;62994;52.126;5.596;2023-02-15T12:44:59;11.30;99.90
17565;DHT22;62994;52.126;5.596;2023-02-15T12:47:31;11.40;99.90
17565;DHT22;62994;52.126;5.596;2023-02-15T12:50:12;11.50;99.90
17565;DHT22;62994;52.126;5.596;2023-02-15T12:52:44;11.60;99.90
17565;DHT22;62994;52.126;5.596;2023-02-15T12:55:19;11.80;99.90
17565;DHT22;62994;52.126;5.596;2023-02-15T12:57:49;11.90;99.90
17565;DHT22;62994;52.126;5.596;2023-02-15T13:00:28;12.00;99.90
17565;DHT22;62994;52.126;5.596;2023-02-15T13:03:01;12.10;99.90
17565;DHT22;62994;52.126;5.596;2023-02-15T13:05:36;12.30;99.90
17565;DHT22;62994;52.126;5.596;2023-02-15T13:08:10;12.40;99.90
17565;DHT22;62994;52.126;5.596;2023-02-15T13:10:41;12.50;99.90
17565;DHT22;62994;52.126;5.596;2023-02-15T13:13:19;12.60;99.90
17565;DHT22;62994;52.126;5.596;2023-02-15T13:15:50;12.70;99.90
17565;DHT22;62994;52.126;5.596;2023-02-15T13:18:25;12.80;99.90
17565;DHT22;62994;52.126;5.596;2023-02-15T13:21:05;12.80;99.90
17565;DHT22;62994;52.126;5.596;2023-02-15T13:23:34;12.90;99.90
17565;DHT22;62994;52.126;5.596;2023-02-15T13:26:16;12.90;99.90
17565;DHT22;62994;52.126;5.596;2023-02-15T13:28:49;12.90;99.90
17565;DHT22;62994;52.126;5.596;2023-02-15T13:31:19;13.00;99.90
17565;DHT22;62994;52.126;5.596;2023-02-15T13:33:50;13.00;99.90
17565;DHT22;62994;52.126;5.596;2023-02-15T13:36:23;13.00;99.90
17565;DHT22;62994;52.126;5.596;2023-02-15T13:39:12;13.10;99.90
17565;DHT22;62994;52.126;5.596;2023-02-15T13:41:50;13.10;99.90
17565;DHT22;62994;52.126;5.596;2023-02-15T13:44:41;13.10;99.90
17565;DHT22;62994;52.126;5.596;2023-02-15T13:47:20;13.10;99.90
17565;DHT22;62994;52.126;5.596;2023-02-15T13:50:00;13.10;99.90
17565;DHT22;62994;52.126;5.596;2023-02-15T13:52:34;13.00;99.90
17565;DHT22;62994;52.126;5.596;2023-02-15T13:55:28;12.90;99.90
17565;DHT22;62994;52.126;5.596;2023-02-15T14:01:04;13.00;99.90
17565;DHT22;62994;52.126;5.596;2023-02-15T14:03:48;13.00;99.90
17565;DHT22;62994;52.126;5.596;2023-02-15T14:06:47;13.00;99.90
17565;DHT22;62994;52.126;5.596;2023-02-15T14:09:30;13.00;99.90
17565;DHT22;62994;52.126;5.596;2023-02-15T14:12:18;13.00;99.90
17565;DHT22;62994;52.126;5.596;2023-02-15T14:15:11;13.00;99.90
17565;DHT22;62994;52.126;5.596;2023-02-15T14:17:50;13.00;99.90
17565;DHT22;62994;52.126;5.596;2023-02-15T14:20:28;13.00;99.90
17565;DHT22;62994;52.126;5.596;2023-02-15T14:23:05;13.00;99.90
17565;DHT22;62994;52.126;5.596;2023-02-15T14:25:40;13.00;99.90
17565;DHT22;62994;52.126;5.596;2023-02-15T14:28:13;13.10;99.90
17565;DHT22;62994;52.126;5.596;2023-02-15T14:30:43;13.10;99.90
17565;DHT22;62994;52.126;5.596;2023-02-15T14:33:31;13.00;99.90
17565;DHT22;62994;52.126;5.596;2023-02-15T14:36:06;13.00;99.90
17565;DHT22;62994;52.126;5.596;2023-02-15T14:38:45;13.00;99.90
17565;DHT22;62994;52.126;5.596;2023-02-15T14:41:24;13.00;99.90
17565;DHT22;62994;52.126;5.596;2023-02-15T14:44:07;12.90;99.90
17565;DHT22;62994;52.126;5.596;2023-02-15T14:46:48;12.90;99.90
17565;DHT22;62994;52.126;5.596;2023-02-15T14:49:22;12.90;99.90
17565;DHT22;62994;52.126;5.596;2023-02-15T14:52:04;12.90;99.90
17565;DHT22;62994;52.126;5.596;2023-02-15T14:55:00;12.90;99.90
17565;DHT22;62994;52.126;5.596;2023-02-15T14:57:31;12.90;99.90
17565;DHT22;62994;52.126;5.596;2023-02-15T15:00:03;13.00;99.90
17565;DHT22;62994;52.126;5.596;2023-02-15T15:02:48;12.90;99.90
17565;DHT22;62994;52.126;5.596;2023-02-15T15:05:24;12.90;99.90
17565;DHT22;62994;52.126;5.596;2023-02-15T15:07:54;12.80;99.90
17565;DHT22;62994;52.126;5.596;2023-02-15T15:10:38;12.80;99.90
17565;DHT22;62994;52.126;5.596;2023-02-15T15:13:39;12.80;99.90
17565;DHT22;62994;52.126;5.596;2023-02-15T15:16:30;12.90;99.90
17565;DHT22;62994;52.126;5.596;2023-02-15T15:19:09;12.80;99.90
17565;DHT22;62994;52.126;5.596;2023-02-15T15:21:54;12.70;99.90
17565;DHT22;62994;52.126;5.596;2023-02-15T15:24:50;12.70;99.90
17565;DHT22;62994;52.126;5.596;2023-02-15T15:27:44;12.60;99.90
17565;DHT22;62994;52.126;5.596;2023-02-15T15:40:17;12.50;99.90
17565;DHT22;62994;52.126;5.596;2023-02-15T15:46:39;12.40;99.90
17565;DHT22;62994;52.126;5.596;2023-02-15T15:49:13;12.40;99.90
17565;DHT22;62994;52.126;5.596;2023-02-15T15:51:42;12.40;99.90
17565;DHT22;62994;52.126;5.596;2023-02-15T15:54:15;12.40;99.90
17565;DHT22;62994;52.126;5.596;2023-02-15T15:56:47;12.40;99.90
17565;DHT22;62994;52.126;5.596;2023-02-15T15:59:19;12.40;99.90
17565;DHT22;62994;52.126;5.596;2023-02-15T16:01:48;12.40;99.90
17565;DHT22;62994;52.126;5.596;2023-02-15T16:04:23;12.40;99.90
17565;DHT22;62994;52.126;5.596;2023-02-15T16:07:22;12.50;99.90
17565;DHT22;62994;52.126;5.596;2023-02-15T16:09:56;12.50;99.90
17565;DHT22;62994;52.126;5.596;2023-02-15T16:12:31;12.50;99.90
17565;DHT22;62994;52.126;5.596;2023-02-15T16:15:06;12.50;99.90
17565;DHT22;62994;52.126;5.596;2023-02-15T16:17:48;12.40;99.90
17565;DHT22;62994;52.126;5.596;2023-02-15T16:20:22;12.40;99.90
17565;DHT22;62994;52.126;5.596;2023-02-15T16:22:56;12.30;99.90
17565;DHT22;62994;52.126;5.596;2023-02-15T16:25:50;12.30;99.90
17565;DHT22;62994;52.126;5.596;2023-02-15T16:28:22;12.20;99.90
17565;DHT22;62994;52.126;5.596;2023-02-15T16:33:38;12.10;99.90
17565;DHT22;62994;52.126;5.596;2023-02-15T16:36:13;12.10;99.90
17565;DHT22;62994;52.126;5.596;2023-02-15T16:39:09;12.10;99.90
17565;DHT22;62994;52.126;5.596;2023-02-15T16:41:38;12.00;99.90
17565;DHT22;62994;52.126;5.596;2023-02-15T16:44:19;12.00;99.90
17565;DHT22;62994;52.126;5.596;2023-02-15T16:46:48;11.90;99.90
17565;DHT22;62994;52.126;5.596;2023-02-15T16:49:27;11.90;99.90
17565;DHT22;62994;52.126;5.596;2023-02-15T16:52:01;11.80;99.90
17565;DHT22;62994;52.126;5.596;2023-02-15T16:54:36;11.80;99.90
17565;DHT22;62994;52.126;5.596;2023-02-15T16:57:16;11.70;99.90
17565;DHT22;62994;52.126;5.596;2023-02-15T17:00:04;11.70;99.90
17565;DHT22;62994;52.126;5.596;2023-02-15T17:02:33;11.60;99.90